Time;durP1;ratioP1;P1;durP2;ratioP2;P2;SDS_P1;SDS_P2;PMS_P1;PMS_P2;Temp;Humidity;BMP_temperature;BMP_pressure;BME280_temperature;BME280_humidity;BME280_pressure;Samples;Min_cycle;Max_cycle;Signal;HPM_P1;HPM_P2
2023/07/08 00:01:02;;;;;;;;;;;25.40;37.10;;;;;;1579955;74;728;-62
2023/07/08 00:03:03;;;;;;;;;;;25.40;37.10;;;;;;1574706;73;765;-61
2023/07/08 00:05:06;;;;;;;;;;;25.30;37.20;;;;;;1573250;73;1512;-61
2023/07/08 00:07:09;;;;;;;;;;;25.30;37.10;;;;;;1576630;73;672;-61
2023/07/08 00:09:12;;;;;;;;;;;25.40;37.00;;;;;;1567561;73;2098;-61
2023/07/08 00:11:14;;;;;;;;;;;25.40;37.00;;;;;;1566679;73;1929;-61
2023/07/08 00:13:16;;;;;;;;;;;25.40;37.10;;;;;;1569631;73;760;-61
2023/07/08 00:15:18;;;;;;;;;;;25.40;37.00;;;;;;1575715;73;756;-61
2023/07/08 00:17:20;;;;;;;;;;;25.40;36.90;;;;;;1584445;73;801;-61
2023/07/08 00:19:23;;;;;;;;;;;25.40;37.00;;;;;;1583867;74;1279;-61
2023/07/08 00:21:25;;;;;;;;;;;25.40;37.10;;;;;;1573747;74;758;-61
2023/07/08 00:23:27;;;;;;;;;;;25.40;37.10;;;;;;1565663;73;739;-61
2023/07/08 00:25:29;;;;;;;;;;;25.40;37.10;;;;;;1575436;73;795;-61
2023/07/08 00:27:31;;;;;;;;;;;25.40;37.10;;;;;;1576614;73;795;-61
2023/07/08 00:29:33;;;;;;;;;;;25.40;37.00;;;;;;1571241;73;1074;-61
2023/07/08 00:31:35;;;;;;;;;;;25.30;37.10;;;;;;1569475;73;1921;-61
2023/07/08 00:33:37;;;;;;;;;;;25.40;37.10;;;;;;1569265;73;1143;-61
2023/07/08 00:35:40;;;;;;;;;;;25.40;37.10;;;;;;1581484;74;668;-61
2023/07/08 00:37:42;;;;;;;;;;;25.40;37.00;;;;;;1578047;73;761;-61
2023/07/08 00:39:44;;;;;;;;;;;25.40;37.00;;;;;;1577612;73;1170;-61
2023/07/08 00:41:45;;;;;;;;;;;25.50;37.00;;;;;;1575055;73;770;-61
2023/07/08 00:43:51;;;;;;;;;;;25.30;37.10;;;;;;1570805;73;727;-61
2023/07/08 00:45:54;;;;;;;;;;;25.40;37.10;;;;;;1562947;74;604;-61
2023/07/08 00:47:56;;;;;;;;;;;25.40;37.10;;;;;;1546702;75;769;-61
2023/07/08 00:49:58;;;;;;;;;;;25.30;37.10;;;;;;1587733;73;1964;-61
2023/07/08 00:52:16;;;;;;;;;;;25.40;37.10;;;;;;1573572;73;745;-61
2023/07/08 00:54:19;;;;;;;;;;;25.40;37.10;;;;;;1571100;73;1642;-61
2023/07/08 00:56:31;;;;;;;;;;;25.40;37.10;;;;;;1590256;73;851;-61
2023/07/08 00:58:34;;;;;;;;;;;25.30;37.20;;;;;;1576289;73;1142;-61
2023/07/08 01:00:36;;;;;;;;;;;25.30;37.20;;;;;;1574835;73;1772;-61
2023/07/08 01:02:41;;;;;;;;;;;25.30;37.10;;;;;;1582067;73;771;-61
2023/07/08 01:04:51;;;;;;;;;;;25.30;37.10;;;;;;1583329;73;1885;-61
2023/07/08 01:06:57;;;;;;;;;;;25.30;37.10;;;;;;1581049;73;749;-60
2023/07/08 01:08:59;;;;;;;;;;;25.30;37.10;;;;;;1581786;74;1524;-61
2023/07/08 01:11:02;;;;;;;;;;;25.30;37.10;;;;;;1565047;73;1939;-61
2023/07/08 01:13:04;;;;;;;;;;;25.30;37.20;;;;;;1562357;73;775;-61
2023/07/08 01:15:07;;;;;;;;;;;25.30;37.10;;;;;;1584885;73;1547;-63
2023/07/08 01:17:13;;;;;;;;;;;25.30;37.20;;;;;;1572534;73;721;-60
2023/07/08 01:19:14;;;;;;;;;;;25.30;37.10;;;;;;1567255;74;1597;-60
2023/07/08 01:21:33;;;;;;;;;;;25.30;37.10;;;;;;1571499;73;720;-60
2023/07/08 01:23:36;;;;;;;;;;;25.30;37.10;;;;;;1565191;73;747;-60
2023/07/08 01:25:38;;;;;;;;;;;25.40;37.10;;;;;;1578733;73;738;-61
2023/07/08 01:27:41;;;;;;;;;;;25.30;37.00;;;;;;1574010;73;731;-61
2023/07/08 01:29:43;;;;;;;;;;;25.40;37.00;;;;;;1568825;73;1534;-60
2023/07/08 01:31:48;;;;;;;;;;;25.30;37.00;;;;;;1585377;73;1945;-60
2023/07/08 01:33:48;;;;;;;;;;;25.40;36.90;;;;;;1571122;73;1692;-60
2023/07/08 01:35:50;;;;;;;;;;;25.30;37.10;;;;;;1571336;73;790;-59
2023/07/08 01:37:53;;;;;;;;;;;25.30;37.00;;;;;;1569422;73;738;-60
2023/07/08 01:39:55;;;;;;;;;;;25.30;37.00;;;;;;1588172;74;1143;-59
2023/07/08 01:41:57;;;;;;;;;;;25.30;37.00;;;;;;1568058;73;737;-60
2023/07/08 01:43:59;;;;;;;;;;;25.30;37.00;;;;;;1569584;73;1561;-59
2023/07/08 01:46:01;;;;;;;;;;;25.40;37.00;;;;;;1582049;73;818;-60
2023/07/08 01:48:06;;;;;;;;;;;25.30;37.00;;;;;;1569757;73;605;-59
2023/07/08 01:50:08;;;;;;;;;;;25.40;36.90;;;;;;1573917;74;1939;-60
2023/07/08 01:52:10;;;;;;;;;;;25.30;37.00;;;;;;1580132;73;798;-59
2023/07/08 01:54:12;;;;;;;;;;;25.40;36.90;;;;;;1577711;73;685;-60
2023/07/08 01:56:14;;;;;;;;;;;25.30;36.90;;;;;;1570912;73;1595;-59
2023/07/08 01:58:16;;;;;;;;;;;25.30;37.10;;;;;;1564274;73;1142;-60
2023/07/08 02:00:18;;;;;;;;;;;25.30;37.10;;;;;;1580964;74;782;-60
2023/07/08 02:02:20;;;;;;;;;;;25.30;37.10;;;;;;1586030;74;928;-60
2023/07/08 02:04:22;;;;;;;;;;;25.30;37.20;;;;;;1577085;73;740;-60
2023/07/08 02:06:24;;;;;;;;;;;25.20;37.20;;;;;;1578680;73;665;-60
2023/07/08 02:08:25;;;;;;;;;;;25.10;37.20;;;;;;1578424;73;1101;-60
2023/07/08 02:10:27;;;;;;;;;;;25.20;37.20;;;;;;1579653;74;1933;-61
2023/07/08 02:12:29;;;;;;;;;;;25.30;37.20;;;;;;1578390;74;843;-61
2023/07/08 02:14:31;;;;;;;;;;;25.20;37.20;;;;;;1586305;73;793;-63
2023/07/08 02:16:33;;;;;;;;;;;25.20;37.30;;;;;;1585522;73;652;-61
2023/07/08 02:18:35;;;;;;;;;;;25.10;37.30;;;;;;1586094;74;1120;-63
2023/07/08 02:20:37;;;;;;;;;;;25.20;37.30;;;;;;1574326;73;666;-62
2023/07/08 02:22:39;;;;;;;;;;;25.20;37.30;;;;;;1586441;73;686;-62
2023/07/08 02:24:40;;;;;;;;;;;25.20;37.30;;;;;;1578977;73;1217;-62
2023/07/08 02:26:42;;;;;;;;;;;25.20;37.30;;;;;;1589048;73;785;-61
2023/07/08 02:28:44;;;;;;;;;;;25.20;37.30;;;;;;1585195;73;1196;-62
2023/07/08 02:30:46;;;;;;;;;;;25.20;37.30;;;;;;1587403;73;1920;-61
2023/07/08 02:32:56;;;;;;;;;;;25.20;37.30;;;;;;1579915;73;1176;-59
2023/07/08 02:34:52;;;;;;;;;;;25.20;37.30;;;;;;1578967;73;1702;-60
2023/07/08 02:36:54;;;;;;;;;;;25.20;37.30;;;;;;1585632;73;741;-59
2023/07/08 02:38:55;;;;;;;;;;;25.20;37.30;;;;;;1566112;73;1364;-60
2023/07/08 02:40:57;;;;;;;;;;;25.20;37.30;;;;;;1583281;73;760;-60
2023/07/08 02:42:59;;;;;;;;;;;25.10;37.20;;;;;;1575729;73;796;-60
2023/07/08 02:45:01;;;;;;;;;;;25.20;37.30;;;;;;1581339;73;744;-61
2023/07/08 02:47:03;;;;;;;;;;;25.20;37.30;;;;;;1589377;73;711;-61
2023/07/08 02:49:05;;;;;;;;;;;25.20;37.20;;;;;;1586244;74;1147;-60
2023/07/08 02:51:08;;;;;;;;;;;25.20;37.20;;;;;;1583665;73;1931;-60
2023/07/08 02:53:10;;;;;;;;;;;25.10;37.10;;;;;;1574898;73;1562;-58
2023/07/08 02:55:12;;;;;;;;;;;25.20;37.20;;;;;;1578036;73;777;-59
2023/07/08 02:57:14;;;;;;;;;;;25.20;37.20;;;;;;1574504;73;727;-59
2023/07/08 02:59:16;;;;;;;;;;;25.20;37.10;;;;;;1575361;74;1106;-58
2023/07/08 03:01:18;;;;;;;;;;;25.20;37.10;;;;;;1584182;73;734;-58
2023/07/08 03:03:20;;;;;;;;;;;25.10;36.90;;;;;;1578114;73;739;-58
2023/07/08 03:05:22;;;;;;;;;;;25.10;37.20;;;;;;1568307;73;798;-58
2023/07/08 03:07:23;;;;;;;;;;;25.20;37.10;;;;;;1577306;73;1516;-58
2023/07/08 03:09:26;;;;;;;;;;;25.20;36.80;;;;;;1573812;74;1148;-59
2023/07/08 03:11:28;;;;;;;;;;;25.10;36.70;;;;;;1572229;73;1916;-59
2023/07/08 03:13:30;;;;;;;;;;;25.20;36.60;;;;;;1565873;73;751;-59
2023/07/08 03:15:32;;;;;;;;;;;25.20;36.70;;;;;;1572069;73;683;-59
2023/07/08 03:17:33;;;;;;;;;;;25.20;36.70;;;;;;1585353;73;799;-59
2023/07/08 03:19:35;;;;;;;;;;;25.20;36.70;;;;;;1586537;73;1131;-58
2023/07/08 03:21:37;;;;;;;;;;;25.20;36.80;;;;;;1577303;73;1574;-58
2023/07/08 03:23:39;;;;;;;;;;;25.20;36.70;;;;;;1590399;73;741;-57
2023/07/08 03:25:42;;;;;;;;;;;25.20;36.80;;;;;;1583864;73;706;-60
2023/07/08 03:27:44;;;;;;;;;;;25.10;36.80;;;;;;1586757;73;907;-58
2023/07/08 03:29:46;;;;;;;;;;;25.20;36.80;;;;;;1574692;73;1147;-59
2023/07/08 03:31:48;;;;;;;;;;;25.20;36.80;;;;;;1585963;73;1947;-58
2023/07/08 03:33:50;;;;;;;;;;;25.10;36.90;;;;;;1581370;73;725;-59
2023/07/08 03:35:52;;;;;;;;;;;25.10;36.70;;;;;;1588294;73;1635;-58
2023/07/08 03:37:54;;;;;;;;;;;25.10;36.50;;;;;;1569443;73;807;-58
2023/07/08 03:39:56;;;;;;;;;;;25.20;36.50;;;;;;1581066;73;1140;-58
2023/07/08 03:41:58;;;;;;;;;;;25.10;36.50;;;;;;1587277;73;772;-58
2023/07/08 03:44:00;;;;;;;;;;;25.20;36.80;;;;;;1581641;73;764;-59
2023/07/08 03:46:02;;;;;;;;;;;25.10;36.60;;;;;;1586303;73;602;-59
2023/07/08 03:48:04;;;;;;;;;;;25.20;36.50;;;;;;1592384;73;677;-58
2023/07/08 03:50:06;;;;;;;;;;;25.20;36.60;;;;;;1572110;73;1428;-58
2023/07/08 03:52:09;;;;;;;;;;;25.10;36.60;;;;;;1582499;73;1917;-59
2023/07/08 03:54:12;;;;;;;;;;;25.10;36.70;;;;;;1578843;73;746;-59
2023/07/08 03:56:14;;;;;;;;;;;25.10;36.80;;;;;;1583501;73;823;-58
2023/07/08 03:58:16;;;;;;;;;;;25.10;36.70;;;;;;1581827;73;1150;-59
2023/07/08 04:00:17;;;;;;;;;;;25.10;36.70;;;;;;1587552;74;721;-59
2023/07/08 04:02:19;;;;;;;;;;;25.10;36.60;;;;;;1586103;73;737;-59
2023/07/08 04:04:21;;;;;;;;;;;25.10;36.70;;;;;;1575050;73;1367;-59
2023/07/08 04:06:23;;;;;;;;;;;25.10;36.70;;;;;;1583925;73;724;-59
2023/07/08 04:08:25;;;;;;;;;;;25.20;36.70;;;;;;1586674;73;1160;-59
2023/07/08 04:10:27;;;;;;;;;;;25.10;36.30;;;;;;1590086;73;645;-58
2023/07/08 04:12:29;;;;;;;;;;;25.10;36.00;;;;;;1590393;73;1977;-59
2023/07/08 04:14:31;;;;;;;;;;;25.10;35.70;;;;;;1583519;73;742;-59
2023/07/08 04:16:36;;;;;;;;;;;25.10;36.00;;;;;;1589487;73;709;-59
2023/07/08 04:18:38;;;;;;;;;;;25.10;36.00;;;;;;1580357;73;1320;-58
2023/07/08 04:20:40;;;;;;;;;;;25.20;35.80;;;;;;1580664;73;678;-58
2023/07/08 04:22:42;;;;;;;;;;;25.10;35.90;;;;;;1597467;73;765;-58
2023/07/08 04:24:44;;;;;;;;;;;25.10;35.80;;;;;;1582649;73;730;-58
2023/07/08 04:26:46;;;;;;;;;;;25.20;35.80;;;;;;1601675;73;767;-58
2023/07/08 04:28:48;;;;;;;;;;;25.30;35.60;;;;;;1581145;73;1196;-57
2023/07/08 04:30:50;;;;;;;;;;;25.30;36.00;;;;;;1602937;73;787;-59
2023/07/08 04:32:52;;;;;;;;;;;25.20;35.80;;;;;;1579728;73;1933;-59
2023/07/08 04:34:54;;;;;;;;;;;25.10;36.30;;;;;;1566845;73;613;-59
2023/07/08 04:36:56;;;;;;;;;;;25.10;36.80;;;;;;1566479;73;781;-59
2023/07/08 04:38:58;;;;;;;;;;;25.10;37.00;;;;;;1576220;73;1144;-58
2023/07/08 04:41:00;;;;;;;;;;;25.10;36.80;;;;;;1573296;73;774;-58
2023/07/08 04:43:02;;;;;;;;;;;25.10;37.00;;;;;;1566780;73;769;-59
2023/07/08 04:45:05;;;;;;;;;;;25.10;37.00;;;;;;1572667;73;1524;-58
2023/07/08 04:47:08;;;;;;;;;;;25.00;36.80;;;;;;1574775;73;782;-58
2023/07/08 04:49:10;;;;;;;;;;;25.10;36.90;;;;;;1587548;73;1151;-58
2023/07/08 04:51:12;;;;;;;;;;;25.00;37.10;;;;;;1564754;73;1940;-59
2023/07/08 04:53:14;;;;;;;;;;;25.10;37.10;;;;;;1567709;73;736;-58
2023/07/08 04:55:16;;;;;;;;;;;25.10;37.10;;;;;;1576949;73;829;-59
2023/07/08 04:57:18;;;;;;;;;;;25.10;37.20;;;;;;1583359;73;941;-59
2023/07/08 04:59:21;;;;;;;;;;;25.00;37.20;;;;;;1572074;73;1285;-60
2023/07/08 05:01:23;;;;;;;;;;;25.00;37.30;;;;;;1582747;73;698;-59
2023/07/08 05:03:25;;;;;;;;;;;25.00;37.30;;;;;;1567706;74;820;-58
2023/07/08 05:05:27;;;;;;;;;;;25.00;37.70;;;;;;1566415;73;715;-61
2023/07/08 05:07:29;;;;;;;;;;;25.00;38.10;;;;;;1580970;73;752;-59
2023/07/08 05:09:31;;;;;;;;;;;25.00;38.20;;;;;;1587904;73;1112;-58
2023/07/08 05:11:33;;;;;;;;;;;25.00;38.30;;;;;;1583987;73;1911;-59
2023/07/08 05:13:35;;;;;;;;;;;25.00;38.60;;;;;;1572768;73;1529;-58
2023/07/08 05:15:37;;;;;;;;;;;25.00;38.60;;;;;;1575495;73;781;-58
2023/07/08 05:17:39;;;;;;;;;;;25.00;38.60;;;;;;1587530;73;736;-58
2023/07/08 05:19:41;;;;;;;;;;;24.90;38.70;;;;;;1585468;73;1143;-59
2023/07/08 05:21:45;;;;;;;;;;;25.00;38.90;;;;;;1584095;73;667;-58
2023/07/08 05:23:49;;;;;;;;;;;25.00;39.00;;;;;;1576911;73;721;-58
2023/07/08 05:25:50;;;;;;;;;;;25.00;39.20;;;;;;1582439;73;705;-58
2023/07/08 05:27:52;;;;;;;;;;;25.00;39.10;;;;;;1570857;73;1527;-59
2023/07/08 05:29:54;;;;;;;;;;;24.90;39.20;;;;;;1587319;73;1152;-59
2023/07/08 05:31:56;;;;;;;;;;;24.90;39.20;;;;;;1580787;74;1934;-59
2023/07/08 05:33:58;;;;;;;;;;;25.00;39.20;;;;;;1568404;73;1120;-59
2023/07/08 05:36:00;;;;;;;;;;;25.00;39.20;;;;;;1585208;74;774;-60
2023/07/08 05:38:02;;;;;;;;;;;25.00;39.40;;;;;;1578806;73;686;-60
2023/07/08 05:40:04;;;;;;;;;;;25.10;39.40;;;;;;1581141;73;1131;-59
2023/07/08 05:42:06;;;;;;;;;;;25.00;39.40;;;;;;1571852;73;1300;-59
2023/07/08 05:44:08;;;;;;;;;;;25.00;39.30;;;;;;1569381;73;747;-58
2023/07/08 05:46:10;;;;;;;;;;;25.00;39.30;;;;;;1573598;73;718;-59
2023/07/08 05:48:12;;;;;;;;;;;25.00;39.50;;;;;;1591013;74;1153;-59
2023/07/08 05:50:14;;;;;;;;;;;25.00;39.50;;;;;;1592145;73;763;-59
2023/07/08 05:52:16;;;;;;;;;;;25.00;39.60;;;;;;1589421;73;1948;-59
2023/07/08 05:54:17;;;;;;;;;;;25.00;39.60;;;;;;1579911;73;711;-60
2023/07/08 05:56:19;;;;;;;;;;;25.00;39.40;;;;;;1591501;74;1606;-59
2023/07/08 05:58:21;;;;;;;;;;;25.10;39.40;;;;;;1586319;73;1134;-60
2023/07/08 06:00:23;;;;;;;;;;;25.00;39.50;;;;;;1596488;73;738;-59
2023/07/08 06:02:26;;;;;;;;;;;25.00;39.50;;;;;;1592217;73;1058;-58
2023/07/08 06:04:28;;;;;;;;;;;25.00;39.40;;;;;;1583299;73;1107;-60
2023/07/08 06:06:30;;;;;;;;;;;25.00;39.50;;;;;;1583337;73;1482;-59
2023/07/08 06:08:32;;;;;;;;;;;25.00;39.40;;;;;;1592431;73;1179;-60
2023/07/08 06:10:34;;;;;;;;;;;25.00;39.40;;;;;;1579734;74;1479;-60
2023/07/08 06:12:36;;;;;;;;;;;25.00;39.40;;;;;;1567828;73;1912;-59
2023/07/08 06:14:38;;;;;;;;;;;25.00;39.40;;;;;;1580506;74;1494;-60
2023/07/08 06:16:40;;;;;;;;;;;24.90;39.40;;;;;;1581131;73;1085;-60
2023/07/08 06:18:42;;;;;;;;;;;25.00;39.40;;;;;;1577436;73;1499;-59
2023/07/08 06:20:45;;;;;;;;;;;25.00;39.50;;;;;;1565233;73;1131;-60
2023/07/08 06:22:47;;;;;;;;;;;24.90;39.50;;;;;;1567201;73;1854;-59
2023/07/08 06:24:49;;;;;;;;;;;24.90;39.70;;;;;;1572387;73;1531;-60
2023/07/08 06:26:51;;;;;;;;;;;24.90;39.60;;;;;;1574103;73;1105;-59
2023/07/08 06:28:53;;;;;;;;;;;24.90;39.70;;;;;;1582479;74;1520;-60
2023/07/08 06:30:55;;;;;;;;;;;24.80;39.60;;;;;;1576530;73;1110;-60
2023/07/08 06:32:57;;;;;;;;;;;24.90;39.80;;;;;;1579155;73;1949;-60
2023/07/08 06:34:58;;;;;;;;;;;24.80;39.70;;;;;;1581980;73;1461;-59
2023/07/08 06:37:00;;;;;;;;;;;24.80;39.70;;;;;;1582117;73;1511;-60
2023/07/08 06:39:03;;;;;;;;;;;24.80;39.70;;;;;;1580720;73;1534;-59
2023/07/08 06:41:05;;;;;;;;;;;24.80;39.80;;;;;;1582461;73;1222;-60
2023/07/08 06:43:07;;;;;;;;;;;24.80;39.70;;;;;;1590985;73;1231;-60
2023/07/08 06:45:09;;;;;;;;;;;24.80;39.80;;;;;;1582591;73;1117;-60
2023/07/08 06:47:11;;;;;;;;;;;24.90;40.00;;;;;;1574414;73;1463;-59
2023/07/08 06:49:13;;;;;;;;;;;24.90;39.90;;;;;;1576439;74;1116;-60
2023/07/08 06:51:15;;;;;;;;;;;24.90;39.90;;;;;;1583837;73;1483;-60
2023/07/08 06:53:17;;;;;;;;;;;25.00;39.90;;;;;;1575331;73;1927;-60
2023/07/08 06:55:18;;;;;;;;;;;24.90;39.90;;;;;;1581405;73;1074;-59
2023/07/08 06:57:20;;;;;;;;;;;25.00;39.90;;;;;;1578260;73;1487;-60
2023/07/08 06:59:22;;;;;;;;;;;24.90;39.90;;;;;;1566443;73;1176;-60
2023/07/08 07:01:24;;;;;;;;;;;25.00;39.90;;;;;;1578134;73;1467;-59
2023/07/08 07:03:26;;;;;;;;;;;25.00;39.80;;;;;;1573125;73;1191;-59
2023/07/08 07:05:28;;;;;;;;;;;25.00;39.80;;;;;;1581752;73;1491;-59
2023/07/08 07:07:30;;;;;;;;;;;24.90;39.80;;;;;;1582533;73;1409;-60
2023/07/08 07:09:32;;;;;;;;;;;24.90;39.80;;;;;;1581290;73;1165;-59
2023/07/08 07:11:34;;;;;;;;;;;24.90;39.90;;;;;;1564978;73;1119;-60
2023/07/08 07:13:36;;;;;;;;;;;24.90;40.00;;;;;;1570226;73;1933;-60
2023/07/08 07:15:37;;;;;;;;;;;24.90;40.00;;;;;;1575134;73;1077;-59
2023/07/08 07:17:39;;;;;;;;;;;24.90;40.10;;;;;;1571668;73;1136;-59
2023/07/08 07:19:41;;;;;;;;;;;25.00;40.00;;;;;;1584536;73;1581;-60
2023/07/08 07:21:43;;;;;;;;;;;25.00;40.00;;;;;;1578470;74;1166;-59
2023/07/08 07:23:45;;;;;;;;;;;25.00;40.10;;;;;;1579945;73;1163;-60
2023/07/08 07:25:50;;;;;;;;;;;25.00;40.10;;;;;;1579663;73;1477;-59
2023/07/08 07:27:52;;;;;;;;;;;24.90;40.30;;;;;;1576909;73;1106;-60
2023/07/08 07:29:54;;;;;;;;;;;24.90;40.20;;;;;;1581954;73;1402;-60
2023/07/08 07:31:56;;;;;;;;;;;24.90;40.30;;;;;;1569815;73;1153;-59
2023/07/08 07:33:58;;;;;;;;;;;25.00;40.20;;;;;;1580992;73;1959;-60
2023/07/08 07:35:59;;;;;;;;;;;25.00;40.20;;;;;;1581441;73;1144;-62
2023/07/08 07:38:01;;;;;;;;;;;24.90;40.30;;;;;;1575019;73;1176;-62
2023/07/08 07:40:04;;;;;;;;;;;25.00;40.20;;;;;;1580029;73;1398;-62
2023/07/08 07:42:26;;;;;;;;;;;24.90;40.20;;;;;;1569298;73;1525;-62
2023/07/08 07:44:27;;;;;;;;;;;25.00;40.30;;;;;;1537509;76;1212;-62
2023/07/08 07:46:29;;;;;;;;;;;25.00;39.90;;;;;;1535908;76;1181;-61
2023/07/08 07:48:31;;;;;;;;;;;25.00;40.00;;;;;;1540467;76;1313;-61
2023/07/08 07:50:34;;;;;;;;;;;25.00;39.90;;;;;;1535299;75;1100;-61
2023/07/08 07:52:36;;;;;;;;;;;25.00;39.90;;;;;;1538065;75;1921;-61
2023/07/08 07:54:39;;;;;;;;;;;25.00;40.00;;;;;;1541588;75;1093;-62
2023/07/08 07:56:41;;;;;;;;;;;25.00;40.00;;;;;;1537737;75;1551;-61
2023/07/08 07:58:42;;;;;;;;;;;25.00;40.00;;;;;;1532179;75;1162;-62
2023/07/08 08:00:44;;;;;;;;;;;25.00;40.00;;;;;;1524908;75;1110;-63
2023/07/08 08:02:46;;;;;;;;;;;25.00;40.00;;;;;;1509378;77;1574;-62
2023/07/08 08:04:48;;;;;;;;;;;25.00;40.00;;;;;;1535089;75;1468;-62
2023/07/08 08:06:50;;;;;;;;;;;25.00;40.00;;;;;;1545752;75;1508;-62
2023/07/08 08:08:52;;;;;;;;;;;25.00;39.80;;;;;;1546679;75;1128;-62
2023/07/08 08:10:54;;;;;;;;;;;24.90;39.80;;;;;;1546419;75;1479;-63
2023/07/08 08:12:56;;;;;;;;;;;24.90;39.90;;;;;;1525683;75;1943;-63
2023/07/08 08:14:58;;;;;;;;;;;25.00;40.00;;;;;;1534221;75;1184;-63
2023/07/08 08:17:00;;;;;;;;;;;24.90;39.90;;;;;;1533162;75;1306;-63
2023/07/08 08:19:02;;;;;;;;;;;25.00;39.90;;;;;;1530027;75;1486;-63
2023/07/08 08:21:03;;;;;;;;;;;25.00;40.00;;;;;;1538368;75;1474;-62
2023/07/08 08:23:06;;;;;;;;;;;24.90;40.00;;;;;;1542344;76;1152;-62
2023/07/08 08:25:08;;;;;;;;;;;24.90;40.00;;;;;;1537381;75;1549;-62
2023/07/08 08:27:10;;;;;;;;;;;24.90;40.00;;;;;;1546332;75;1288;-62
2023/07/08 08:29:12;;;;;;;;;;;24.80;40.00;;;;;;1532039;76;1515;-62
2023/07/08 08:31:13;;;;;;;;;;;24.90;40.00;;;;;;1532107;75;1511;-63
2023/07/08 08:33:15;;;;;;;;;;;24.90;40.00;;;;;;1508063;77;1941;-62
2023/07/08 08:35:17;;;;;;;;;;;24.90;39.90;;;;;;1533859;75;1456;-62
2023/07/08 08:37:19;;;;;;;;;;;25.00;40.00;;;;;;1536871;75;1490;-62
2023/07/08 08:39:21;;;;;;;;;;;24.90;39.90;;;;;;1538954;75;1517;-62
2023/07/08 08:41:25;;;;;;;;;;;25.00;39.80;;;;;;1543921;75;1466;-62
2023/07/08 08:43:34;;;;;;;;;;;25.00;39.90;;;;;;1539809;76;1621;-62
2023/07/08 08:45:53;;;;;;;;;;;24.90;39.80;;;;;;1523033;76;1490;-59
2023/07/08 08:47:56;;;;;;;;;;;24.90;39.90;;;;;;1528624;76;1720;-60
2023/07/08 08:50:00;;;;;;;;;;;24.80;39.90;;;;;;1506526;76;1531;-60
2023/07/08 08:52:02;;;;;;;;;;;24.80;39.80;;;;;;1522078;76;1523;-60
2023/07/08 08:54:04;;;;;;;;;;;24.90;39.90;;;;;;1494914;78;1915;-60
2023/07/08 08:56:07;;;;;;;;;;;24.80;39.80;;;;;;1469602;79;1507;-60
2023/07/08 08:58:14;;;;;;;;;;;24.90;39.90;;;;;;1478703;79;1859;-60
2023/07/08 09:00:17;;;;;;;;;;;24.90;40.00;;;;;;1465119;79;1498;-61
2023/07/08 09:02:35;;;;;;;;;;;24.80;39.80;;;;;;1463580;79;1452;-60
2023/07/08 09:04:37;;;;;;;;;;;24.90;40.00;;;;;;1482595;78;1487;-61
2023/07/08 09:06:39;;;;;;;;;;;24.90;39.90;;;;;;1487974;78;1501;-60
2023/07/08 09:08:41;;;;;;;;;;;24.90;39.90;;;;;;1487719;78;1144;-61
2023/07/08 09:10:46;;;;;;;;;;;24.90;39.90;;;;;;1487733;78;1038;-60
2023/07/08 09:12:49;;;;;;;;;;;24.90;39.80;;;;;;1464078;79;1929;-61
2023/07/08 09:14:51;;;;;;;;;;;24.90;39.80;;;;;;1478982;79;1102;-61
2023/07/08 09:16:54;;;;;;;;;;;24.80;39.70;;;;;;1476031;79;1414;-59
2023/07/08 09:18:58;;;;;;;;;;;24.90;39.80;;;;;;1476240;79;1581;-60
2023/07/08 09:20:59;;;;;;;;;;;24.90;39.80;;;;;;1466022;79;1539;-61
2023/07/08 09:23:06;;;;;;;;;;;24.90;39.70;;;;;;1484296;79;1549;-60
2023/07/08 09:25:12;;;;;;;;;;;25.00;39.80;;;;;;1469903;79;1875;-60
2023/07/08 09:27:14;;;;;;;;;;;24.90;39.80;;;;;;1487235;78;1509;-60
2023/07/08 09:29:16;;;;;;;;;;;24.90;39.80;;;;;;1460366;79;1513;-60
2023/07/08 09:31:25;;;;;;;;;;;24.90;39.80;;;;;;1474950;79;1517;-59
2023/07/08 09:33:27;;;;;;;;;;;24.90;39.80;;;;;;1459995;79;1943;-60
2023/07/08 09:35:30;;;;;;;;;;;24.90;39.70;;;;;;1470011;79;1485;-59
2023/07/08 09:37:38;;;;;;;;;;;24.90;39.70;;;;;;1498134;78;1513;-58
2023/07/08 09:39:40;;;;;;;;;;;24.90;39.70;;;;;;1487012;78;1502;-61
2023/07/08 09:41:43;;;;;;;;;;;24.90;39.70;;;;;;1494155;78;1481;-60
2023/07/08 09:43:44;;;;;;;;;;;24.90;39.60;;;;;;1467279;79;1253;-59
2023/07/08 09:45:47;;;;;;;;;;;24.90;39.60;;;;;;1493078;77;1093;-60
2023/07/08 09:47:50;;;;;;;;;;;24.90;39.70;;;;;;1505168;77;1524;-60
2023/07/08 09:49:53;;;;;;;;;;;25.00;39.60;;;;;;1515225;77;2001;-60
2023/07/08 09:51:55;;;;;;;;;;;25.00;39.50;;;;;;1499252;77;1101;-60
2023/07/08 09:53:57;;;;;;;;;;;24.90;39.50;;;;;;1506034;77;1945;-60
2023/07/08 09:55:59;;;;;;;;;;;24.90;39.60;;;;;;1481568;78;1527;-60
2023/07/08 09:58:03;;;;;;;;;;;24.90;39.50;;;;;;1501274;77;1785;-60
2023/07/08 10:00:11;;;;;;;;;;;25.00;39.50;;;;;;1479590;78;1527;-60
2023/07/08 10:02:21;;;;;;;;;;;25.00;39.50;;;;;;1474874;78;1918;-60
2023/07/08 10:04:22;;;;;;;;;;;24.90;39.50;;;;;;1472674;79;1999;-60
2023/07/08 10:06:28;;;;;;;;;;;24.90;39.60;;;;;;1500403;78;1520;-60
2023/07/08 10:08:32;;;;;;;;;;;24.90;39.50;;;;;;1500409;77;1510;-60
2023/07/08 10:10:37;;;;;;;;;;;24.90;39.40;;;;;;1496275;78;1505;-59
2023/07/08 10:12:39;;;;;;;;;;;24.90;39.50;;;;;;1497832;77;1306;-60
2023/07/08 10:14:43;;;;;;;;;;;24.90;39.40;;;;;;1493874;77;1932;-59
2023/07/08 10:16:44;;;;;;;;;;;25.00;39.50;;;;;;1497168;77;1788;-60
2023/07/08 10:18:46;;;;;;;;;;;24.90;39.50;;;;;;1509805;77;1518;-60
2023/07/08 10:21:06;;;;;;;;;;;24.90;39.50;;;;;;1509373;77;1273;-60
2023/07/08 10:23:19;;;;;;;;;;;24.90;39.40;;;;;;1502404;77;1434;-60
2023/07/08 10:25:27;;;;;;;;;;;25.00;39.40;;;;;;1481600;78;1856;-59
2023/07/08 10:27:31;;;;;;;;;;;24.90;39.40;;;;;;1495354;77;1451;-60
2023/07/08 10:29:34;;;;;;;;;;;25.00;39.50;;;;;;1477150;79;1313;-60
2023/07/08 10:31:40;;;;;;;;;;;24.90;39.40;;;;;;1476842;78;1590;-59
2023/07/08 10:33:44;;;;;;;;;;;25.00;39.40;;;;;;1483112;78;1939;-60
2023/07/08 10:35:47;;;;;;;;;;;24.90;39.50;;;;;;1488715;77;1276;-61
2023/07/08 10:37:53;;;;;;;;;;;25.00;39.50;;;;;;1495153;77;1949;-62
2023/07/08 10:40:00;;;;;;;;;;;24.90;39.40;;;;;;1497587;78;1367;-61
2023/07/08 10:42:22;;;;;;;;;;;24.90;39.40;;;;;;1498294;78;1418;-60
2023/07/08 10:44:29;;;;;;;;;;;24.90;39.40;;;;;;1478151;78;1571;-61
2023/07/08 10:46:35;;;;;;;;;;;24.90;39.40;;;;;;1510903;77;1225;-62
2023/07/08 10:48:44;;;;;;;;;;;25.00;39.40;;;;;;1479857;78;1800;-61
2023/07/08 10:50:57;;;;;;;;;;;25.00;39.40;;;;;;1498566;79;2037;-61
2023/07/08 10:53:17;;;;;;;;;;;25.00;39.40;;;;;;1474486;78;1505;-61
2023/07/08 10:55:21;;;;;;;;;;;24.90;39.40;;;;;;1497521;77;1511;-61
2023/07/08 10:57:24;;;;;;;;;;;24.90;39.50;;;;;;1505790;77;1513;-60
2023/07/08 10:59:31;;;;;;;;;;;24.90;39.60;;;;;;1479267;79;1661;-60
2023/07/08 11:01:34;;;;;;;;;;;24.90;39.50;;;;;;1481812;78;1912;-60
2023/07/08 11:03:41;;;;;;;;;;;24.90;39.40;;;;;;1489072;78;1857;-60
2023/07/08 11:05:47;;;;;;;;;;;25.00;39.40;;;;;;1489677;79;1537;-59
2023/07/08 11:07:50;;;;;;;;;;;25.00;39.10;;;;;;1477040;78;1524;-62
2023/07/08 11:09:54;;;;;;;;;;;25.00;39.20;;;;;;1479723;78;2124;-60
2023/07/08 11:11:57;;;;;;;;;;;25.00;39.20;;;;;;1491689;78;1835;-60
2023/07/08 11:14:04;;;;;;;;;;;25.00;39.00;;;;;;1501956;77;1937;-60
2023/07/08 11:16:10;;;;;;;;;;;25.00;39.00;;;;;;1478602;78;1485;-60
2023/07/08 11:18:16;;;;;;;;;;;25.00;38.90;;;;;;1476617;78;1472;-60
2023/07/08 11:20:20;;;;;;;;;;;25.00;38.90;;;;;;1496522;78;1430;-60
2023/07/08 11:22:22;;;;;;;;;;;25.00;38.90;;;;;;1477394;78;1770;-60
2023/07/08 11:24:25;;;;;;;;;;;25.00;38.90;;;;;;1482522;78;1508;-60
2023/07/08 11:26:28;;;;;;;;;;;25.00;38.90;;;;;;1481798;79;1507;-60
2023/07/08 11:28:30;;;;;;;;;;;25.00;38.90;;;;;;1482537;78;1488;-59
2023/07/08 11:30:32;;;;;;;;;;;25.00;38.80;;;;;;1480055;79;1536;-59
2023/07/08 11:32:34;;;;;;;;;;;24.90;38.90;;;;;;1474255;78;1405;-60
2023/07/08 11:34:36;;;;;;;;;;;25.00;38.90;;;;;;1501476;78;1949;-60
2023/07/08 11:36:38;;;;;;;;;;;25.00;38.90;;;;;;1502851;77;1499;-60
2023/07/08 11:38:41;;;;;;;;;;;25.00;38.70;;;;;;1494715;77;1401;-59
2023/07/08 11:40:50;;;;;;;;;;;25.00;38.60;;;;;;1504140;77;1613;-61
2023/07/08 11:42:53;;;;;;;;;;;25.00;38.60;;;;;;1500537;77;1472;-60
2023/07/08 11:44:56;;;;;;;;;;;25.00;38.70;;;;;;1495381;77;1146;-61
2023/07/08 11:46:58;;;;;;;;;;;24.90;38.70;;;;;;1503120;77;1527;-59
2023/07/08 11:49:03;;;;;;;;;;;25.00;38.80;;;;;;1491929;78;1544;-59
2023/07/08 11:51:05;;;;;;;;;;;25.00;38.70;;;;;;1505182;78;1295;-60
2023/07/08 11:53:07;;;;;;;;;;;25.00;38.70;;;;;;1508803;77;1277;-60
2023/07/08 11:55:13;;;;;;;;;;;25.00;38.40;;;;;;1504610;77;1938;-60
2023/07/08 11:57:31;;;;;;;;;;;25.00;38.30;;;;;;1510776;77;1551;-59
2023/07/08 11:59:33;;;;;;;;;;;25.00;38.10;;;;;;1508092;77;1512;-60
2023/07/08 12:01:37;;;;;;;;;;;25.00;38.30;;;;;;1476061;79;1457;-59
2023/07/08 12:03:40;;;;;;;;;;;25.00;38.20;;;;;;1475289;78;1259;-59
2023/07/08 12:05:42;;;;;;;;;;;25.00;38.30;;;;;;1472131;78;1556;-61
2023/07/08 12:07:48;;;;;;;;;;;25.00;38.20;;;;;;1472906;78;1590;-59
2023/07/08 12:09:51;;;;;;;;;;;25.00;38.10;;;;;;1473337;79;1509;-59